sensor_id;sensor_type;location;lat;lon;timestamp;temperature;humidity
51914;DHT22;37940;53.002;6.930;2022-10-31T00:00:44;12.80;99.90
51914;DHT22;37940;53.002;6.930;2022-10-31T00:03:10;12.60;99.90
51914;DHT22;37940;53.002;6.930;2022-10-31T00:05:36;12.60;99.90
51914;DHT22;37940;53.002;6.930;2022-10-31T00:08:05;12.50;99.90
51914;DHT22;37940;53.002;6.930;2022-10-31T00:10:30;12.50;99.90
51914;DHT22;37940;53.002;6.930;2022-10-31T00:12:56;12.40;99.90
51914;DHT22;37940;53.002;6.930;2022-10-31T00:15:22;12.40;99.90
51914;DHT22;37940;53.002;6.930;2022-10-31T00:17:47;12.50;99.90
51914;DHT22;37940;53.002;6.930;2022-10-31T00:20:13;12.40;99.90
51914;DHT22;37940;53.002;6.930;2022-10-31T00:22:39;12.20;99.90
51914;DHT22;37940;53.002;6.930;2022-10-31T00:25:04;12.20;99.90
51914;DHT22;37940;53.002;6.930;2022-10-31T00:27:30;12.20;99.90
51914;DHT22;37940;53.002;6.930;2022-10-31T00:29:56;12.40;99.90
51914;DHT22;37940;53.002;6.930;2022-10-31T00:32:21;12.20;99.90
51914;DHT22;37940;53.002;6.930;2022-10-31T00:34:47;12.30;99.90
51914;DHT22;37940;53.002;6.930;2022-10-31T00:37:12;12.00;99.90
51914;DHT22;37940;53.002;6.930;2022-10-31T00:39:38;12.00;99.90
51914;DHT22;37940;53.002;6.930;2022-10-31T00:42:04;11.90;99.90
51914;DHT22;37940;53.002;6.930;2022-10-31T00:44:29;11.90;99.90
51914;DHT22;37940;53.002;6.930;2022-10-31T00:46:55;11.90;99.90
51914;DHT22;37940;53.002;6.930;2022-10-31T00:49:21;11.90;99.90
51914;DHT22;37940;53.002;6.930;2022-10-31T00:51:46;11.80;99.90
51914;DHT22;37940;53.002;6.930;2022-10-31T00:54:12;11.70;99.90
51914;DHT22;37940;53.002;6.930;2022-10-31T00:56:38;11.90;99.90
51914;DHT22;37940;53.002;6.930;2022-10-31T00:59:03;11.60;99.90
51914;DHT22;37940;53.002;6.930;2022-10-31T01:01:29;11.60;99.90
51914;DHT22;37940;53.002;6.930;2022-10-31T01:03:54;11.50;99.90
51914;DHT22;37940;53.002;6.930;2022-10-31T01:06:20;11.50;99.90
51914;DHT22;37940;53.002;6.930;2022-10-31T01:08:47;11.50;99.90
51914;DHT22;37940;53.002;6.930;2022-10-31T01:11:15;11.40;99.90
51914;DHT22;37940;53.002;6.930;2022-10-31T01:13:41;11.40;99.90
51914;DHT22;37940;53.002;6.930;2022-10-31T01:16:11;11.30;99.90
51914;DHT22;37940;53.002;6.930;2022-10-31T01:18:37;11.30;99.90
51914;DHT22;37940;53.002;6.930;2022-10-31T01:21:09;11.20;99.90
51914;DHT22;37940;53.002;6.930;2022-10-31T01:23:35;11.20;99.90
51914;DHT22;37940;53.002;6.930;2022-10-31T01:26:04;11.20;99.90
51914;DHT22;37940;53.002;6.930;2022-10-31T01:28:30;11.80;99.90
51914;DHT22;37940;53.002;6.930;2022-10-31T01:31:00;11.10;99.90
51914;DHT22;37940;53.002;6.930;2022-10-31T01:33:29;11.70;99.90
51914;DHT22;37940;53.002;6.930;2022-10-31T01:35:54;11.10;99.90
51914;DHT22;37940;53.002;6.930;2022-10-31T01:38:20;11.10;99.90
51914;DHT22;37940;53.002;6.930;2022-10-31T01:40:46;11.10;99.90
51914;DHT22;37940;53.002;6.930;2022-10-31T01:43:13;11.10;99.90
51914;DHT22;37940;53.002;6.930;2022-10-31T01:45:40;11.10;99.90
51914;DHT22;37940;53.002;6.930;2022-10-31T01:48:15;11.20;99.90
51914;DHT22;37940;53.002;6.930;2022-10-31T01:50:43;11.10;99.90
51914;DHT22;37940;53.002;6.930;2022-10-31T01:53:11;11.10;99.90
51914;DHT22;37940;53.002;6.930;2022-10-31T01:55:41;11.00;99.90
51914;DHT22;37940;53.002;6.930;2022-10-31T01:58:13;11.00;99.90
51914;DHT22;37940;53.002;6.930;2022-10-31T02:00:39;11.00;99.90
51914;DHT22;37940;53.002;6.930;2022-10-31T02:03:06;11.00;99.90
51914;DHT22;37940;53.002;6.930;2022-10-31T02:05:32;11.00;99.90
51914;DHT22;37940;53.002;6.930;2022-10-31T02:08:06;11.00;99.90
51914;DHT22;37940;53.002;6.930;2022-10-31T02:10:34;11.00;99.90
51914;DHT22;37940;53.002;6.930;2022-10-31T02:13:03;11.00;99.90
51914;DHT22;37940;53.002;6.930;2022-10-31T02:15:30;11.00;99.90
51914;DHT22;37940;53.002;6.930;2022-10-31T02:17:57;10.90;99.90
51914;DHT22;37940;53.002;6.930;2022-10-31T02:20:25;11.40;99.90
51914;DHT22;37940;53.002;6.930;2022-10-31T02:34:31;10.80;99.90
51914;DHT22;37940;53.002;6.930;2022-10-31T02:37:23;10.80;99.90
51914;DHT22;37940;53.002;6.930;2022-10-31T02:40:23;10.70;99.90
51914;DHT22;37940;53.002;6.930;2022-10-31T03:17:49;10.40;99.90
51914;DHT22;37940;53.002;6.930;2022-10-31T03:20:18;10.40;99.90
51914;DHT22;37940;53.002;6.930;2022-10-31T03:22:46;10.30;99.90
51914;DHT22;37940;53.002;6.930;2022-10-31T03:25:13;10.30;99.90
51914;DHT22;37940;53.002;6.930;2022-10-31T03:27:41;10.20;99.90
51914;DHT22;37940;53.002;6.930;2022-10-31T03:30:08;10.20;99.90
51914;DHT22;37940;53.002;6.930;2022-10-31T03:35:01;10.20;99.90
51914;DHT22;37940;53.002;6.930;2022-10-31T03:37:32;10.10;99.90
51914;DHT22;37940;53.002;6.930;2022-10-31T03:40:00;10.10;99.90
51914;DHT22;37940;53.002;6.930;2022-10-31T03:42:32;10.10;99.90
51914;DHT22;37940;53.002;6.930;2022-10-31T03:45:22;10.30;99.90
51914;DHT22;37940;53.002;6.930;2022-10-31T03:47:49;10.00;99.90
51914;DHT22;37940;53.002;6.930;2022-10-31T03:50:15;10.00;99.90
51914;DHT22;37940;53.002;6.930;2022-10-31T03:55:18;9.90;99.90
51914;DHT22;37940;53.002;6.930;2022-10-31T04:00:19;9.90;99.90
51914;DHT22;37940;53.002;6.930;2022-10-31T04:05:32;9.90;99.90
51914;DHT22;37940;53.002;6.930;2022-10-31T04:07:59;9.80;99.90
51914;DHT22;37940;53.002;6.930;2022-10-31T04:10:27;9.80;99.90
51914;DHT22;37940;53.002;6.930;2022-10-31T04:13:04;9.80;99.90
51914;DHT22;37940;53.002;6.930;2022-10-31T04:15:31;10.00;99.90
51914;DHT22;37940;53.002;6.930;2022-10-31T04:17:59;9.70;99.90
51914;DHT22;37940;53.002;6.930;2022-10-31T04:20:36;9.70;99.90
51914;DHT22;37940;53.002;6.930;2022-10-31T04:23:03;10.10;99.90
51914;DHT22;37940;53.002;6.930;2022-10-31T04:25:29;9.60;99.90
51914;DHT22;37940;53.002;6.930;2022-10-31T04:27:55;9.60;99.90
51914;DHT22;37940;53.002;6.930;2022-10-31T04:30:21;9.50;99.90
51914;DHT22;37940;53.002;6.930;2022-10-31T04:32:46;9.50;99.90
51914;DHT22;37940;53.002;6.930;2022-10-31T04:35:12;9.50;99.90
51914;DHT22;37940;53.002;6.930;2022-10-31T04:37:38;9.50;99.90
51914;DHT22;37940;53.002;6.930;2022-10-31T04:40:04;9.50;99.90
51914;DHT22;37940;53.002;6.930;2022-10-31T04:42:30;9.40;99.90
51914;DHT22;37940;53.002;6.930;2022-10-31T04:44:56;9.40;99.90
51914;DHT22;37940;53.002;6.930;2022-10-31T04:47:21;9.40;99.90
51914;DHT22;37940;53.002;6.930;2022-10-31T04:49:47;9.30;99.90
51914;DHT22;37940;53.002;6.930;2022-10-31T04:52:13;9.30;99.90
51914;DHT22;37940;53.002;6.930;2022-10-31T04:54:39;9.30;99.90
51914;DHT22;37940;53.002;6.930;2022-10-31T04:57:04;9.30;99.90
51914;DHT22;37940;53.002;6.930;2022-10-31T04:59:30;9.30;99.90
51914;DHT22;37940;53.002;6.930;2022-10-31T05:01:56;9.30;99.90
51914;DHT22;37940;53.002;6.930;2022-10-31T05:04:21;9.30;99.90
51914;DHT22;37940;53.002;6.930;2022-10-31T05:06:47;9.30;99.90
51914;DHT22;37940;53.002;6.930;2022-10-31T05:09:13;9.30;99.90
51914;DHT22;37940;53.002;6.930;2022-10-31T05:11:38;9.30;99.90
51914;DHT22;37940;53.002;6.930;2022-10-31T05:14:04;9.20;99.90
51914;DHT22;37940;53.002;6.930;2022-10-31T05:16:30;9.20;99.90
51914;DHT22;37940;53.002;6.930;2022-10-31T05:18:55;9.20;99.90
51914;DHT22;37940;53.002;6.930;2022-10-31T05:21:21;9.20;99.90
51914;DHT22;37940;53.002;6.930;2022-10-31T05:23:47;9.20;99.90
51914;DHT22;37940;53.002;6.930;2022-10-31T05:26:12;9.20;99.90
51914;DHT22;37940;53.002;6.930;2022-10-31T05:28:38;9.20;99.90
51914;DHT22;37940;53.002;6.930;2022-10-31T05:31:04;9.20;99.90
51914;DHT22;37940;53.002;6.930;2022-10-31T05:33:29;9.50;99.90
51914;DHT22;37940;53.002;6.930;2022-10-31T05:35:55;9.20;99.90
51914;DHT22;37940;53.002;6.930;2022-10-31T05:38:21;9.20;99.90
51914;DHT22;37940;53.002;6.930;2022-10-31T05:40:46;9.10;99.90
51914;DHT22;37940;53.002;6.930;2022-10-31T05:43:12;9.10;99.90
51914;DHT22;37940;53.002;6.930;2022-10-31T05:45:38;9.10;99.90
51914;DHT22;37940;53.002;6.930;2022-10-31T05:48:04;9.00;99.90
51914;DHT22;37940;53.002;6.930;2022-10-31T05:50:31;9.00;99.90
51914;DHT22;37940;53.002;6.930;2022-10-31T05:53:01;9.00;99.90
51914;DHT22;37940;53.002;6.930;2022-10-31T05:55:28;9.00;99.90
51914;DHT22;37940;53.002;6.930;2022-10-31T05:57:54;9.00;99.90
51914;DHT22;37940;53.002;6.930;2022-10-31T06:00:21;9.00;99.90
51914;DHT22;37940;53.002;6.930;2022-10-31T06:02:47;8.90;99.90
51914;DHT22;37940;53.002;6.930;2022-10-31T06:05:13;8.90;99.90
51914;DHT22;37940;53.002;6.930;2022-10-31T06:07:38;8.90;99.90
51914;DHT22;37940;53.002;6.930;2022-10-31T06:10:06;8.90;99.90
51914;DHT22;37940;53.002;6.930;2022-10-31T06:12:33;8.90;99.90
51914;DHT22;37940;53.002;6.930;2022-10-31T06:15:04;8.80;99.90
51914;DHT22;37940;53.002;6.930;2022-10-31T06:17:31;8.80;99.90
51914;DHT22;37940;53.002;6.930;2022-10-31T06:19:57;8.80;99.90
51914;DHT22;37940;53.002;6.930;2022-10-31T06:22:23;8.80;99.90
51914;DHT22;37940;53.002;6.930;2022-10-31T06:24:48;8.80;99.90
51914;DHT22;37940;53.002;6.930;2022-10-31T06:27:14;8.80;99.90
51914;DHT22;37940;53.002;6.930;2022-10-31T06:29:39;9.40;99.90
51914;DHT22;37940;53.002;6.930;2022-10-31T06:32:05;8.80;99.90
51914;DHT22;37940;53.002;6.930;2022-10-31T06:34:31;8.80;99.90
51914;DHT22;37940;53.002;6.930;2022-10-31T06:36:56;8.90;99.90
51914;DHT22;37940;53.002;6.930;2022-10-31T06:39:22;8.80;99.90
51914;DHT22;37940;53.002;6.930;2022-10-31T06:41:48;8.80;99.90
51914;DHT22;37940;53.002;6.930;2022-10-31T06:44:14;8.70;99.90
51914;DHT22;37940;53.002;6.930;2022-10-31T06:46:39;8.70;99.90
51914;DHT22;37940;53.002;6.930;2022-10-31T06:49:05;8.80;99.90
51914;DHT22;37940;53.002;6.930;2022-10-31T06:51:31;8.80;99.90
51914;DHT22;37940;53.002;6.930;2022-10-31T06:53:56;8.80;99.90
51914;DHT22;37940;53.002;6.930;2022-10-31T06:56:22;8.80;99.90
51914;DHT22;37940;53.002;6.930;2022-10-31T06:58:48;8.80;99.90
51914;DHT22;37940;53.002;6.930;2022-10-31T07:01:13;8.80;99.90
51914;DHT22;37940;53.002;6.930;2022-10-31T07:03:39;8.80;99.90
51914;DHT22;37940;53.002;6.930;2022-10-31T07:06:04;9.40;99.90
51914;DHT22;37940;53.002;6.930;2022-10-31T07:08:30;8.90;99.90
51914;DHT22;37940;53.002;6.930;2022-10-31T07:10:57;9.20;99.90
51914;DHT22;37940;53.002;6.930;2022-10-31T07:13:23;8.90;99.90
51914;DHT22;37940;53.002;6.930;2022-10-31T07:15:54;8.90;99.90
51914;DHT22;37940;53.002;6.930;2022-10-31T07:18:21;8.90;99.90
51914;DHT22;37940;53.002;6.930;2022-10-31T07:20:47;9.00;99.90
51914;DHT22;37940;53.002;6.930;2022-10-31T07:23:13;9.00;99.90
51914;DHT22;37940;53.002;6.930;2022-10-31T07:25:39;9.10;99.90
51914;DHT22;37940;53.002;6.930;2022-10-31T07:28:05;9.10;99.90
51914;DHT22;37940;53.002;6.930;2022-10-31T07:30:31;9.10;99.90
51914;DHT22;37940;53.002;6.930;2022-10-31T07:32:57;9.10;99.90
51914;DHT22;37940;53.002;6.930;2022-10-31T07:35:26;9.10;99.90
51914;DHT22;37940;53.002;6.930;2022-10-31T07:37:52;9.10;99.90
51914;DHT22;37940;53.002;6.930;2022-10-31T07:40:18;9.20;99.90
51914;DHT22;37940;53.002;6.930;2022-10-31T07:42:46;9.20;99.90
51914;DHT22;37940;53.002;6.930;2022-10-31T07:45:14;9.20;99.90
51914;DHT22;37940;53.002;6.930;2022-10-31T07:47:41;9.30;99.90
51914;DHT22;37940;53.002;6.930;2022-10-31T07:50:09;9.30;99.90
51914;DHT22;37940;53.002;6.930;2022-10-31T07:52:34;9.40;99.90
51914;DHT22;37940;53.002;6.930;2022-10-31T07:55:00;9.70;99.90
51914;DHT22;37940;53.002;6.930;2022-10-31T07:57:26;9.40;99.90
51914;DHT22;37940;53.002;6.930;2022-10-31T07:59:52;9.50;99.90
51914;DHT22;37940;53.002;6.930;2022-10-31T08:02:18;9.60;99.90
51914;DHT22;37940;53.002;6.930;2022-10-31T08:04:43;9.60;99.90
51914;DHT22;37940;53.002;6.930;2022-10-31T08:07:09;9.70;99.90
51914;DHT22;37940;53.002;6.930;2022-10-31T08:09:35;10.00;99.90
51914;DHT22;37940;53.002;6.930;2022-10-31T08:12:00;10.30;99.90
51914;DHT22;37940;53.002;6.930;2022-10-31T08:14:27;9.90;99.90
51914;DHT22;37940;53.002;6.930;2022-10-31T08:16:56;10.00;99.90
51914;DHT22;37940;53.002;6.930;2022-10-31T08:19:21;10.30;99.90
51914;DHT22;37940;53.002;6.930;2022-10-31T08:21:50;10.10;99.90
51914;DHT22;37940;53.002;6.930;2022-10-31T08:24:30;10.20;99.90
51914;DHT22;37940;53.002;6.930;2022-10-31T08:26:55;10.30;99.90
51914;DHT22;37940;53.002;6.930;2022-10-31T08:29:21;10.40;99.90
51914;DHT22;37940;53.002;6.930;2022-10-31T08:31:47;10.60;99.90
51914;DHT22;37940;53.002;6.930;2022-10-31T08:34:12;10.60;99.90
51914;DHT22;37940;53.002;6.930;2022-10-31T08:36:38;10.70;99.90
51914;DHT22;37940;53.002;6.930;2022-10-31T08:39:03;11.10;99.90
51914;DHT22;37940;53.002;6.930;2022-10-31T08:41:30;10.90;99.90
51914;DHT22;37940;53.002;6.930;2022-10-31T08:43:55;11.00;99.90
51914;DHT22;37940;53.002;6.930;2022-10-31T08:46:21;11.10;99.90
51914;DHT22;37940;53.002;6.930;2022-10-31T08:48:50;11.50;99.90
51914;DHT22;37940;53.002;6.930;2022-10-31T08:51:16;11.40;99.90
51914;DHT22;37940;53.002;6.930;2022-10-31T08:53:42;11.60;99.90
51914;DHT22;37940;53.002;6.930;2022-10-31T08:56:11;11.70;99.90
51914;DHT22;37940;53.002;6.930;2022-10-31T08:58:36;11.90;99.90
51914;DHT22;37940;53.002;6.930;2022-10-31T09:01:02;11.90;99.90
51914;DHT22;37940;53.002;6.930;2022-10-31T09:03:29;12.10;99.90
51914;DHT22;37940;53.002;6.930;2022-10-31T09:06:00;12.20;99.90
51914;DHT22;37940;53.002;6.930;2022-10-31T09:08:28;12.40;99.90
51914;DHT22;37940;53.002;6.930;2022-10-31T09:10:56;12.60;99.90
51914;DHT22;37940;53.002;6.930;2022-10-31T09:13:22;12.60;99.90
51914;DHT22;37940;53.002;6.930;2022-10-31T09:15:48;12.70;99.90
51914;DHT22;37940;53.002;6.930;2022-10-31T09:18:16;12.80;99.90
51914;DHT22;37940;53.002;6.930;2022-10-31T09:20:43;12.90;99.90
51914;DHT22;37940;53.002;6.930;2022-10-31T09:23:20;13.10;99.90
51914;DHT22;37940;53.002;6.930;2022-10-31T09:25:47;13.00;99.90
51914;DHT22;37940;53.002;6.930;2022-10-31T09:28:15;13.30;99.90
51914;DHT22;37940;53.002;6.930;2022-10-31T09:30:41;13.20;99.90
51914;DHT22;37940;53.002;6.930;2022-10-31T09:33:11;13.30;99.90
51914;DHT22;37940;53.002;6.930;2022-10-31T09:35:38;13.40;99.90
51914;DHT22;37940;53.002;6.930;2022-10-31T09:40:40;13.50;99.90
51914;DHT22;37940;53.002;6.930;2022-10-31T09:52:20;13.90;99.90
51914;DHT22;37940;53.002;6.930;2022-10-31T09:55:18;13.80;99.90
51914;DHT22;37940;53.002;6.930;2022-10-31T09:57:54;13.80;99.90
51914;DHT22;37940;53.002;6.930;2022-10-31T10:00:21;13.80;99.90
51914;DHT22;37940;53.002;6.930;2022-10-31T10:03:03;13.90;99.90
51914;DHT22;37940;53.002;6.930;2022-10-31T10:05:41;13.70;99.90
51914;DHT22;37940;53.002;6.930;2022-10-31T10:08:16;13.70;99.90
51914;DHT22;37940;53.002;6.930;2022-10-31T10:13:35;13.60;99.90
51914;DHT22;37940;53.002;6.930;2022-10-31T10:16:16;13.70;99.90
51914;DHT22;37940;53.002;6.930;2022-10-31T10:21:43;13.80;99.90
51914;DHT22;37940;53.002;6.930;2022-10-31T10:24:26;13.80;99.90
51914;DHT22;37940;53.002;6.930;2022-10-31T10:27:11;13.90;99.90
51914;DHT22;37940;53.002;6.930;2022-10-31T10:29:42;13.90;99.90
51914;DHT22;37940;53.002;6.930;2022-10-31T10:32:25;14.00;99.90
51914;DHT22;37940;53.002;6.930;2022-10-31T10:35:00;14.10;99.90
51914;DHT22;37940;53.002;6.930;2022-10-31T10:37:34;14.20;99.90
51914;DHT22;37940;53.002;6.930;2022-10-31T10:40:16;14.30;99.90
51914;DHT22;37940;53.002;6.930;2022-10-31T10:42:50;14.40;99.90
51914;DHT22;37940;53.002;6.930;2022-10-31T10:45:37;14.60;99.90
51914;DHT22;37940;53.002;6.930;2022-10-31T10:48:52;14.70;99.90
51914;DHT22;37940;53.002;6.930;2022-10-31T10:51:40;14.80;99.90
51914;DHT22;37940;53.002;6.930;2022-10-31T10:59:49;14.90;99.90
51914;DHT22;37940;53.002;6.930;2022-10-31T11:02:20;15.00;99.90
51914;DHT22;37940;53.002;6.930;2022-10-31T11:04:55;15.10;99.90
51914;DHT22;37940;53.002;6.930;2022-10-31T11:07:22;15.10;99.90
51914;DHT22;37940;53.002;6.930;2022-10-31T11:09:48;15.10;99.90
51914;DHT22;37940;53.002;6.930;2022-10-31T11:12:30;15.10;99.90
51914;DHT22;37940;53.002;6.930;2022-10-31T11:15:07;15.10;99.90
51914;DHT22;37940;53.002;6.930;2022-10-31T11:17:36;15.10;99.90
51914;DHT22;37940;53.002;6.930;2022-10-31T11:22:37;15.10;99.90
51914;DHT22;37940;53.002;6.930;2022-10-31T11:25:22;15.10;99.90
51914;DHT22;37940;53.002;6.930;2022-10-31T11:28:05;15.20;99.90
51914;DHT22;37940;53.002;6.930;2022-10-31T11:30:37;15.30;99.90
51914;DHT22;37940;53.002;6.930;2022-10-31T11:33:26;15.40;99.90
51914;DHT22;37940;53.002;6.930;2022-10-31T11:35:53;15.40;99.90
51914;DHT22;37940;53.002;6.930;2022-10-31T11:38:23;15.50;99.90
51914;DHT22;37940;53.002;6.930;2022-10-31T11:40:57;15.50;99.90
51914;DHT22;37940;53.002;6.930;2022-10-31T11:43:24;15.50;99.90
51914;DHT22;37940;53.002;6.930;2022-10-31T11:45:50;15.50;99.90
51914;DHT22;37940;53.002;6.930;2022-10-31T11:48:20;15.50;99.90
51914;DHT22;37940;53.002;6.930;2022-10-31T11:50:56;15.50;99.90
51914;DHT22;37940;53.002;6.930;2022-10-31T11:53:32;15.50;99.90
51914;DHT22;37940;53.002;6.930;2022-10-31T11:56:16;15.60;99.90
51914;DHT22;37940;53.002;6.930;2022-10-31T11:58:42;15.60;99.90
51914;DHT22;37940;53.002;6.930;2022-10-31T12:01:26;15.60;99.90
51914;DHT22;37940;53.002;6.930;2022-10-31T12:04:12;15.60;99.90
51914;DHT22;37940;53.002;6.930;2022-10-31T12:06:43;15.70;99.90
51914;DHT22;37940;53.002;6.930;2022-10-31T12:09:33;15.70;99.90
51914;DHT22;37940;53.002;6.930;2022-10-31T12:15:23;15.90;99.90
51914;DHT22;37940;53.002;6.930;2022-10-31T12:26:34;16.10;99.90
51914;DHT22;37940;53.002;6.930;2022-10-31T12:42:28;15.90;99.90
51914;DHT22;37940;53.002;6.930;2022-10-31T12:50:27;15.90;99.90
51914;DHT22;37940;53.002;6.930;2022-10-31T12:55:41;15.90;99.90
51914;DHT22;37940;53.002;6.930;2022-10-31T12:58:23;15.80;99.90
51914;DHT22;37940;53.002;6.930;2022-10-31T13:06:36;15.90;99.90
51914;DHT22;37940;53.002;6.930;2022-10-31T13:09:15;15.90;99.90
51914;DHT22;37940;53.002;6.930;2022-10-31T13:11:45;15.90;99.90
51914;DHT22;37940;53.002;6.930;2022-10-31T13:14:21;15.90;99.90
51914;DHT22;37940;53.002;6.930;2022-10-31T13:16:49;15.90;99.90
51914;DHT22;37940;53.002;6.930;2022-10-31T13:19:38;15.90;99.90
51914;DHT22;37940;53.002;6.930;2022-10-31T13:22:10;15.90;99.90
51914;DHT22;37940;53.002;6.930;2022-10-31T13:28:00;15.90;99.90
51914;DHT22;37940;53.002;6.930;2022-10-31T13:30:36;15.90;99.90
51914;DHT22;37940;53.002;6.930;2022-10-31T13:35:51;16.00;99.90
51914;DHT22;37940;53.002;6.930;2022-10-31T13:38:29;16.00;99.90
51914;DHT22;37940;53.002;6.930;2022-10-31T13:44:00;16.10;99.90
51914;DHT22;37940;53.002;6.930;2022-10-31T13:48:59;16.20;99.90
51914;DHT22;37940;53.002;6.930;2022-10-31T13:51:27;16.20;99.90
51914;DHT22;37940;53.002;6.930;2022-10-31T13:56:31;16.20;99.90
51914;DHT22;37940;53.002;6.930;2022-10-31T13:59:03;16.20;99.90
51914;DHT22;37940;53.002;6.930;2022-10-31T14:01:30;16.20;99.90
51914;DHT22;37940;53.002;6.930;2022-10-31T14:09:34;16.20;99.90
51914;DHT22;37940;53.002;6.930;2022-10-31T14:12:07;16.20;99.90
51914;DHT22;37940;53.002;6.930;2022-10-31T14:14:41;16.10;99.90
51914;DHT22;37940;53.002;6.930;2022-10-31T14:17:20;16.10;99.90
51914;DHT22;37940;53.002;6.930;2022-10-31T14:22:42;16.00;99.90
51914;DHT22;37940;53.002;6.930;2022-10-31T14:25:31;16.00;99.90
51914;DHT22;37940;53.002;6.930;2022-10-31T14:27:59;15.90;99.90
51914;DHT22;37940;53.002;6.930;2022-10-31T14:30:27;15.90;99.90
51914;DHT22;37940;53.002;6.930;2022-10-31T14:32:58;15.80;99.90
51914;DHT22;37940;53.002;6.930;2022-10-31T14:51:51;15.60;99.90
51914;DHT22;37940;53.002;6.930;2022-10-31T14:54:40;15.60;99.90
51914;DHT22;37940;53.002;6.930;2022-10-31T14:57:29;15.50;99.90
51914;DHT22;37940;53.002;6.930;2022-10-31T15:00:07;15.40;99.90
51914;DHT22;37940;53.002;6.930;2022-10-31T15:02:53;15.40;99.90
51914;DHT22;37940;53.002;6.930;2022-10-31T15:05:22;15.30;99.90
51914;DHT22;37940;53.002;6.930;2022-10-31T15:07:53;15.30;99.90
51914;DHT22;37940;53.002;6.930;2022-10-31T15:10:31;15.20;99.90
51914;DHT22;37940;53.002;6.930;2022-10-31T15:13:20;15.20;99.90
51914;DHT22;37940;53.002;6.930;2022-10-31T15:15:47;15.10;99.90
51914;DHT22;37940;53.002;6.930;2022-10-31T15:18:17;15.00;99.90
51914;DHT22;37940;53.002;6.930;2022-10-31T15:20:44;15.00;99.90
51914;DHT22;37940;53.002;6.930;2022-10-31T15:23:31;14.90;99.90
51914;DHT22;37940;53.002;6.930;2022-10-31T15:26:03;14.90;99.90
51914;DHT22;37940;53.002;6.930;2022-10-31T15:28:30;14.90;99.90
51914;DHT22;37940;53.002;6.930;2022-10-31T15:30:59;14.90;99.90
51914;DHT22;37940;53.002;6.930;2022-10-31T15:33:31;14.80;99.90
51914;DHT22;37940;53.002;6.930;2022-10-31T15:36:01;14.80;99.90
51914;DHT22;37940;53.002;6.930;2022-10-31T15:38:28;14.70;99.90
51914;DHT22;37940;53.002;6.930;2022-10-31T15:41:03;14.70;99.90
51914;DHT22;37940;53.002;6.930;2022-10-31T15:43:35;14.70;99.90
51914;DHT22;37940;53.002;6.930;2022-10-31T15:46:02;14.60;99.90
51914;DHT22;37940;53.002;6.930;2022-10-31T15:48:28;14.50;99.90
51914;DHT22;37940;53.002;6.930;2022-10-31T15:50:57;14.50;99.90
51914;DHT22;37940;53.002;6.930;2022-10-31T15:53:59;14.50;99.90
51914;DHT22;37940;53.002;6.930;2022-10-31T15:56:22;14.40;99.90
51914;DHT22;37940;53.002;6.930;2022-10-31T15:58:52;14.40;99.90
51914;DHT22;37940;53.002;6.930;2022-10-31T16:01:26;14.30;99.90
51914;DHT22;37940;53.002;6.930;2022-10-31T16:06:36;14.20;99.90
51914;DHT22;37940;53.002;6.930;2022-10-31T16:09:03;14.20;99.90
51914;DHT22;37940;53.002;6.930;2022-10-31T16:16:54;14.00;99.90
51914;DHT22;37940;53.002;6.930;2022-10-31T16:19:28;13.90;99.90
51914;DHT22;37940;53.002;6.930;2022-10-31T16:22:06;13.90;99.90
51914;DHT22;37940;53.002;6.930;2022-10-31T16:27:22;13.80;99.90
51914;DHT22;37940;53.002;6.930;2022-10-31T16:29:57;13.80;99.90
51914;DHT22;37940;53.002;6.930;2022-10-31T16:37:24;13.60;99.90
51914;DHT22;37940;53.002;6.930;2022-10-31T16:39:50;13.60;99.90
51914;DHT22;37940;53.002;6.930;2022-10-31T16:42:16;13.60;99.90
51914;DHT22;37940;53.002;6.930;2022-10-31T16:44:43;13.50;99.90
51914;DHT22;37940;53.002;6.930;2022-10-31T16:47:16;13.50;99.90
51914;DHT22;37940;53.002;6.930;2022-10-31T16:49:43;13.40;99.90
51914;DHT22;37940;53.002;6.930;2022-10-31T16:52:09;13.40;99.90
51914;DHT22;37940;53.002;6.930;2022-10-31T16:54:35;13.40;99.90
51914;DHT22;37940;53.002;6.930;2022-10-31T16:57:02;13.40;99.90
51914;DHT22;37940;53.002;6.930;2022-10-31T16:59:29;13.40;99.90
51914;DHT22;37940;53.002;6.930;2022-10-31T17:01:56;13.30;99.90
51914;DHT22;37940;53.002;6.930;2022-10-31T17:04:22;13.30;99.90
51914;DHT22;37940;53.002;6.930;2022-10-31T17:06:47;13.30;99.90
51914;DHT22;37940;53.002;6.930;2022-10-31T17:09:13;13.30;99.90
51914;DHT22;37940;53.002;6.930;2022-10-31T17:11:46;13.30;99.90
51914;DHT22;37940;53.002;6.930;2022-10-31T17:14:13;13.30;99.90
51914;DHT22;37940;53.002;6.930;2022-10-31T17:16:39;13.30;99.90
51914;DHT22;37940;53.002;6.930;2022-10-31T17:19:04;13.40;99.90
51914;DHT22;37940;53.002;6.930;2022-10-31T17:21:31;13.50;99.90
51914;DHT22;37940;53.002;6.930;2022-10-31T17:23:56;13.50;99.90
51914;DHT22;37940;53.002;6.930;2022-10-31T17:26:22;13.50;99.90
51914;DHT22;37940;53.002;6.930;2022-10-31T17:28:48;13.50;99.90
51914;DHT22;37940;53.002;6.930;2022-10-31T17:31:22;13.50;99.90
51914;DHT22;37940;53.002;6.930;2022-10-31T17:33:49;13.60;99.90
51914;DHT22;37940;53.002;6.930;2022-10-31T17:36:15;13.60;99.90
51914;DHT22;37940;53.002;6.930;2022-10-31T17:38:52;13.60;99.90
51914;DHT22;37940;53.002;6.930;2022-10-31T17:41:18;13.60;99.90
51914;DHT22;37940;53.002;6.930;2022-10-31T17:43:43;13.60;99.90
51914;DHT22;37940;53.002;6.930;2022-10-31T17:46:09;13.60;99.90
51914;DHT22;37940;53.002;6.930;2022-10-31T17:48:36;13.70;99.90
51914;DHT22;37940;53.002;6.930;2022-10-31T17:51:03;13.70;99.90
51914;DHT22;37940;53.002;6.930;2022-10-31T17:53:30;13.70;99.90
51914;DHT22;37940;53.002;6.930;2022-10-31T17:56:15;13.70;99.90
51914;DHT22;37940;53.002;6.930;2022-10-31T17:58:40;13.70;99.90
51914;DHT22;37940;53.002;6.930;2022-10-31T18:01:12;13.70;99.90
51914;DHT22;37940;53.002;6.930;2022-10-31T18:03:38;13.70;99.90
51914;DHT22;37940;53.002;6.930;2022-10-31T18:06:05;13.70;99.90
51914;DHT22;37940;53.002;6.930;2022-10-31T18:08:32;13.80;99.90
51914;DHT22;37940;53.002;6.930;2022-10-31T18:10:59;13.80;99.90
51914;DHT22;37940;53.002;6.930;2022-10-31T18:13:36;13.80;99.90
51914;DHT22;37940;53.002;6.930;2022-10-31T18:16:09;13.80;99.90
51914;DHT22;37940;53.002;6.930;2022-10-31T18:18:35;13.80;99.90
51914;DHT22;37940;53.002;6.930;2022-10-31T18:21:03;13.80;99.90
51914;DHT22;37940;53.002;6.930;2022-10-31T18:23:29;13.80;99.90
51914;DHT22;37940;53.002;6.930;2022-10-31T18:25:54;13.80;99.90
51914;DHT22;37940;53.002;6.930;2022-10-31T18:28:20;13.80;99.90
51914;DHT22;37940;53.002;6.930;2022-10-31T18:30:46;13.80;99.90
51914;DHT22;37940;53.002;6.930;2022-10-31T18:33:12;13.80;99.90
51914;DHT22;37940;53.002;6.930;2022-10-31T18:35:38;13.80;99.90
51914;DHT22;37940;53.002;6.930;2022-10-31T18:38:05;13.90;99.90
51914;DHT22;37940;53.002;6.930;2022-10-31T18:40:32;13.90;99.90
51914;DHT22;37940;53.002;6.930;2022-10-31T18:42:59;13.90;99.90
51914;DHT22;37940;53.002;6.930;2022-10-31T18:45:24;13.90;99.90